Αρχική σελίδα
METAR-TAF:

METAR-TAF

Αεροδρόμια :

Ουαγκαντουγκού, Μπουρκίνα Φάσο

γεωγραφικό πλάτος: 12-21N, γεωγραφικό μήκος: 001-31W, υψόμετρο: 316 μ

Παρών καιρός

Η αναφορά έγινε 15 λεπτά πριν, στις 00:00 UTC
Άνεμος 2 kt από Α/BA
Θερμοκρασία 22°C
Υγρασία 38%
Πίεση 1016 hPa
Ορατότητα 10 χλμ και άνω
Δεν υπάρχουν νέφη με βάση κάτω από τα 1500 μ. και δεν υπάρχουν νέφη σωρειτομελανίτες.

METAR: DFFD 120000Z 06002KT CAVOK 22/07 Q1016 NOSIG

Χρόνος: 00:15 (00:15 UTC)

Πρόγνωση Καιρού

Η αναφορά έγινε 1 ώρα και 15 λεπτά πριν, στις 23:00 UTC
Η πρόγνωση ισχύει από τις 12 στις 00 UTC έως τις 13 στις 06 UTC
Άνεμος 8 kt από BA
Ορατότητα: 8000 μ
Προσωρινά
από 12 στις 06 UTC έως τις 12 στις 10 UTC
Ορατότητα: 4000 μ
καταχνιά
Προσωρινά
από 12 στις 17 UTC έως τις 12 στις 20 UTC
Ορατότητα: 4000 μ
καταχνιά

TAF: DFFD 112300Z 1200/1306 04008KT 8000 NSC TEMPO 1206/1210 4000 HZ TEMPO 1217/1220 4000 HZ

Μετεωρολογικές αναφορές και προγνώσεις για περισσότερα από 4000 αεροδρόμια (δελτία METAR και TAF).

Οι διαθέσιμοι σταθμοί απεικονίζονται στο χάρτη με κίτρινες και κόκκινες κουκκίδες.

Μετακινήστε το ποντίκι πάνω από τις κουκκίδες για να δείτε το όνομα του σταθμού.

Στη συνέχεια, κάντε κλικ για να δείτε τις μετεωρολογικές αναφορές και τις προγνώσεις καιρού.

Για να αλλάξετε το χάρτη: κάντε κλικ στα πράσινα κουμπιά με τον μαύρο σταυρό για να ζουμάρετε, στο πράσινο κουμπί με την παύλα για να αφαιρέσετε το ζουμ ή στα πράσινα βέλη για να αντιπαραβάλλετε χάρτες.


METAR-TAF: